createdAt,value
2022-12-15T00:02:15.241Z,43.75
2022-12-15T00:07:45.178Z,39.53
2022-12-15T00:10:30.053Z,40.20
2022-12-15T00:13:14.992Z,37.92
2022-12-15T00:15:59.983Z,38.80
2022-12-15T00:18:44.906Z,39.00
2022-12-15T00:21:29.643Z,39.50
2022-12-15T00:24:14.481Z,41.85
2022-12-15T00:26:59.269Z,41.28
2022-12-15T00:29:44.255Z,40.17
2022-12-15T00:32:29.021Z,38.67
2022-12-15T00:35:13.936Z,38.22
2022-12-15T00:37:59.152Z,39.45
2022-12-15T00:42:51.997Z,40.10
2022-12-15T00:45:18.434Z,40.22
2022-12-15T00:47:44.844Z,39.25
2022-12-15T00:53:32.783Z,39.08
2022-12-15T00:56:18.246Z,41.05
2022-12-15T00:59:03.134Z,40.03
2022-12-15T01:01:49.832Z,37.75
2022-12-15T01:04:35.053Z,36.33
2022-12-15T01:07:20.063Z,40.05
2022-12-15T01:10:04.981Z,36.92
2022-12-15T01:12:50.114Z,35.85
2022-12-15T01:15:35.011Z,37.13
2022-12-15T01:18:19.811Z,38.00
2022-12-15T01:20:55.472Z,35.83
2022-12-15T01:23:22.263Z,35.83
2022-12-15T01:25:51.928Z,34.55
2022-12-15T01:28:19.343Z,36.40
2022-12-15T01:30:46.076Z,36.72
2022-12-15T01:33:12.986Z,36.35
2022-12-15T01:35:39.423Z,36.63
2022-12-15T01:38:05.968Z,38.05
2022-12-15T01:40:47.378Z,36.42
2022-12-15T01:43:22.319Z,35.92
2022-12-15T01:46:10.204Z,36.13
2022-12-15T01:48:48.893Z,36.88
2022-12-15T01:51:21.667Z,37.38
2022-12-15T01:53:57.617Z,39.38
2022-12-15T01:56:26.159Z,38.28
2022-12-15T01:58:56.652Z,37.97
2022-12-15T02:01:23.452Z,35.10
2022-12-15T02:03:50.221Z,37.83
2022-12-15T02:06:21.514Z,35.90
2022-12-15T02:08:50.931Z,41.88
2022-12-15T02:11:17.319Z,38.03
2022-12-15T02:13:49.822Z,39.42
2022-12-15T02:16:23.494Z,38.47
2022-12-15T02:19:23.170Z,38.58
2022-12-15T02:22:11.070Z,40.78
2022-12-15T02:24:52.414Z,36.88
2022-12-15T02:27:48.366Z,39.42
2022-12-15T02:30:21.642Z,39.10
2022-12-15T02:33:06.111Z,38.13
2022-12-15T02:35:37.283Z,39.05
2022-12-15T02:38:03.837Z,38.65
2022-12-15T02:40:30.302Z,38.55
2022-12-15T02:43:03.411Z,35.10
2022-12-15T02:45:39.789Z,35.05
2022-12-15T02:48:31.398Z,35.00
2022-12-15T02:51:18.135Z,35.88
2022-12-15T02:54:19.975Z,32.47
2022-12-15T02:56:52.190Z,35.10
2022-12-15T02:59:38.449Z,33.08
2022-12-15T03:02:08.826Z,31.50
2022-12-15T03:04:35.534Z,31.20
2022-12-15T03:07:09.317Z,33.13
2022-12-15T03:09:36.189Z,34.65
2022-12-15T03:12:02.860Z,32.45
2022-12-15T03:14:29.414Z,30.40
2022-12-15T03:16:55.999Z,31.73
2022-12-15T03:19:23.105Z,32.72
2022-12-15T03:21:49.565Z,34.70
2022-12-15T03:24:16.009Z,31.90
2022-12-15T03:26:43.644Z,32.67
2022-12-15T03:29:10.099Z,33.65
2022-12-15T03:31:36.626Z,32.50
2022-12-15T03:34:03.185Z,32.55
2022-12-15T03:36:29.599Z,30.95
2022-12-15T03:38:56.090Z,32.83
2022-12-15T03:41:22.493Z,33.13
2022-12-15T03:43:49.817Z,30.02
2022-12-15T03:46:16.985Z,31.45
2022-12-15T03:48:43.798Z,29.20
2022-12-15T03:51:10.566Z,29.33
2022-12-15T03:53:37.040Z,32.58
2022-12-15T03:56:03.739Z,32.05
2022-12-15T03:58:30.310Z,29.60
2022-12-15T04:00:56.958Z,29.80
2022-12-15T04:03:23.626Z,27.90
2022-12-15T04:05:50.484Z,28.70
2022-12-15T04:08:17.023Z,30.38
2022-12-15T04:10:43.583Z,29.77
2022-12-15T04:13:11.959Z,30.45
2022-12-15T04:15:39.894Z,28.50
2022-12-15T04:18:11.077Z,28.35
2022-12-15T04:20:38.921Z,30.65
2022-12-15T04:23:07.735Z,29.60
2022-12-15T04:25:53.385Z,28.85
2022-12-15T04:28:38.578Z,27.60
2022-12-15T04:34:26.901Z,27.45
2022-12-15T04:37:12.727Z,28.80
2022-12-15T04:40:04.091Z,29.00
2022-12-15T04:42:51.049Z,26.30
2022-12-15T04:45:39.996Z,25.30
2022-12-15T04:48:25.367Z,28.27
2022-12-15T04:51:10.283Z,26.30
2022-12-15T04:53:55.568Z,30.10
2022-12-15T04:59:25.269Z,25.23
2022-12-15T05:02:10.811Z,26.15
2022-12-15T05:04:56.188Z,25.67
2022-12-15T05:07:43.592Z,25.40
2022-12-15T05:10:29.272Z,26.80
2022-12-15T05:13:14.062Z,27.75
2022-12-15T05:15:59.006Z,28.17
2022-12-15T05:18:44.250Z,25.73
2022-12-15T05:24:13.882Z,26.73
2022-12-15T05:26:58.671Z,29.35
2022-12-15T05:29:43.534Z,25.67
2022-12-15T05:32:09.998Z,27.30
2022-12-15T05:34:37.280Z,26.77
2022-12-15T05:37:07.219Z,30.35
2022-12-15T05:39:34.079Z,27.90
2022-12-15T05:42:01.155Z,27.25
2022-12-15T05:44:30.226Z,29.52
2022-12-15T05:46:56.750Z,28.20
2022-12-15T05:49:23.395Z,27.00
2022-12-15T05:51:50.007Z,28.55
2022-12-15T05:54:19.351Z,28.85
2022-12-15T05:56:46.815Z,26.80
2022-12-15T05:59:17.196Z,30.63
2022-12-15T06:01:43.726Z,28.95
2022-12-15T06:04:12.743Z,28.35
2022-12-15T06:06:40.554Z,28.23
2022-12-15T06:09:08.447Z,27.55
2022-12-15T06:11:35.096Z,28.27
2022-12-15T06:14:01.610Z,27.25
2022-12-15T06:16:28.405Z,30.00
2022-12-15T06:18:58.562Z,29.30
2022-12-15T06:21:31.637Z,27.75
2022-12-15T06:23:58.267Z,28.77
2022-12-15T06:26:30.415Z,27.60
2022-12-15T06:28:59.363Z,29.15
2022-12-15T06:31:26.712Z,27.45
2022-12-15T06:34:00.946Z,26.55
2022-12-15T06:36:28.636Z,27.83
2022-12-15T06:38:59.176Z,28.20
2022-12-15T06:41:25.636Z,29.27
2022-12-15T06:43:55.817Z,29.25
2022-12-15T06:46:23.568Z,29.45
2022-12-15T06:48:50.852Z,28.60
2022-12-15T06:51:18.024Z,28.83
2022-12-15T06:53:53.905Z,29.77
2022-12-15T06:56:33.875Z,32.15
2022-12-15T06:59:02.142Z,31.13
2022-12-15T07:01:29.371Z,29.88
2022-12-15T07:03:56.796Z,29.25
2022-12-15T07:06:23.562Z,30.80
2022-12-15T07:08:52.923Z,31.98
2022-12-15T07:11:21.125Z,30.48
2022-12-15T07:13:52.335Z,27.30
2022-12-15T07:16:19.470Z,29.35
2022-12-15T07:18:46.018Z,31.02
2022-12-15T07:21:12.784Z,28.90
2022-12-15T07:23:54.180Z,30.58
2022-12-15T07:26:21.856Z,28.80
2022-12-15T07:28:48.382Z,31.48
2022-12-15T07:31:15.693Z,27.95
2022-12-15T07:33:42.580Z,28.42
2022-12-15T07:36:09.307Z,29.60
2022-12-15T07:38:35.904Z,29.58
2022-12-15T07:41:04.996Z,30.60
2022-12-15T07:43:32.853Z,29.05
2022-12-15T07:46:00.290Z,30.90
2022-12-15T07:48:27.384Z,30.60
2022-12-15T07:51:02.713Z,32.75
2022-12-15T07:53:33.789Z,34.47
2022-12-15T07:56:07.436Z,34.28
2022-12-15T07:58:35.458Z,41.95
2022-12-15T08:01:04.125Z,48.83
2022-12-15T08:03:31.139Z,49.53
2022-12-15T08:06:03.755Z,51.55
2022-12-15T08:08:31.869Z,32.83
2022-12-15T08:10:58.950Z,32.67
2022-12-15T08:14:00.678Z,30.95
2022-12-15T08:16:12.696Z,32.85
2022-12-15T08:18:39.561Z,33.70
2022-12-15T08:21:08.601Z,35.05
2022-12-15T08:23:36.437Z,35.83
2022-12-15T08:26:07.909Z,30.80
2022-12-15T08:28:35.705Z,31.13
2022-12-15T08:31:06.989Z,33.58
2022-12-15T08:33:33.948Z,33.80
2022-12-15T08:36:03.036Z,33.28
2022-12-15T08:38:30.616Z,31.80
2022-12-15T08:40:57.451Z,31.08
2022-12-15T08:43:24.000Z,32.33
2022-12-15T08:45:50.650Z,31.38
2022-12-15T08:48:17.227Z,38.88
2022-12-15T08:50:45.651Z,37.63
2022-12-15T08:53:30.914Z,41.10
2022-12-15T08:56:12.134Z,32.05
2022-12-15T08:58:39.200Z,31.25
2022-12-15T09:01:08.929Z,30.02
2022-12-15T09:03:36.308Z,30.05
2022-12-15T09:06:04.739Z,32.30
2022-12-15T09:08:31.673Z,30.85
2022-12-15T09:10:59.306Z,32.92
2022-12-15T09:13:26.688Z,30.42
2022-12-15T09:16:10.748Z,30.08
2022-12-15T09:18:37.758Z,31.40
2022-12-15T09:21:07.096Z,33.55
2022-12-15T09:23:35.468Z,32.40
2022-12-15T09:26:07.353Z,19.80
2022-12-15T09:28:34.258Z,23.20
2022-12-15T09:31:04.709Z,33.63
2022-12-15T09:33:33.032Z,32.35
2022-12-15T09:36:00.238Z,34.13
2022-12-15T09:38:26.820Z,33.75
2022-12-15T09:40:53.481Z,29.90
2022-12-15T09:43:46.614Z,21.70
2022-12-15T09:46:27.717Z,41.10
2022-12-15T09:48:58.153Z,30.17
2022-12-15T09:51:39.556Z,8.25
2022-12-15T09:54:08.453Z,27.40
2022-12-15T09:56:50.537Z,23.08
2022-12-15T09:59:33.378Z,15.88
2022-12-15T10:02:02.787Z,28.23
2022-12-15T10:04:47.409Z,24.10
2022-12-15T10:07:46.334Z,27.17
2022-12-15T10:10:21.952Z,15.40
2022-12-15T10:15:50.142Z,31.15
2022-12-15T10:18:25.327Z,17.92
2022-12-15T10:23:21.839Z,21.80
2022-12-15T10:26:01.393Z,12.30
2022-12-15T10:29:05.185Z,26.48
2022-12-15T10:31:43.342Z,29.58
2022-12-15T10:34:18.376Z,16.45
2022-12-15T10:36:51.136Z,24.58
2022-12-15T10:39:18.033Z,30.75
2022-12-15T10:41:44.463Z,32.88
2022-12-15T10:44:32.030Z,27.52
2022-12-15T10:46:58.731Z,19.00
2022-12-15T10:49:25.302Z,31.10
2022-12-15T10:51:57.204Z,20.15
2022-12-15T10:54:30.719Z,26.65
2022-12-15T10:57:14.609Z,22.02
2022-12-15T10:59:41.189Z,21.00
2022-12-15T11:02:29.718Z,14.82
2022-12-15T11:04:56.370Z,12.25
2022-12-15T11:07:23.911Z,25.13
2022-12-15T11:09:57.725Z,12.25
2022-12-15T11:12:48.831Z,13.43
2022-12-15T11:15:23.163Z,8.98
2022-12-15T11:18:01.880Z,23.83
2022-12-15T11:20:35.308Z,18.58
2022-12-15T11:23:38.854Z,13.57
2022-12-15T11:26:17.954Z,24.23
2022-12-15T11:28:50.859Z,20.05
2022-12-15T11:31:30.988Z,11.95
2022-12-15T11:33:57.567Z,13.13
2022-12-15T11:37:14.651Z,8.02
2022-12-15T11:40:00.696Z,27.45
2022-12-15T11:42:52.115Z,7.90
2022-12-15T11:45:41.386Z,7.65
2022-12-15T11:48:13.154Z,21.80
2022-12-15T11:50:52.073Z,7.32
2022-12-15T11:53:49.792Z,11.82
2022-12-15T11:56:27.342Z,14.20
2022-12-15T11:59:22.320Z,15.05
2022-12-15T12:02:22.921Z,9.75
2022-12-15T12:05:17.100Z,8.82
2022-12-15T12:07:54.883Z,10.65
2022-12-15T12:10:45.555Z,7.55
2022-12-15T12:13:20.967Z,24.58
2022-12-15T12:16:01.787Z,13.05
2022-12-15T12:18:37.971Z,25.50
2022-12-15T12:21:15.490Z,24.00
2022-12-15T12:23:48.350Z,18.27
2022-12-15T12:26:46.092Z,25.55
2022-12-15T12:29:37.922Z,24.58
2022-12-15T12:32:14.265Z,2.75
2022-12-15T12:35:31.898Z,20.10
2022-12-15T12:38:04.660Z,24.92
2022-12-15T12:41:03.577Z,21.38
2022-12-15T12:43:38.056Z,17.73
2022-12-15T12:46:24.087Z,24.57
2022-12-15T12:49:27.049Z,22.40
2022-12-15T12:51:56.812Z,9.10
2022-12-15T12:54:32.521Z,27.63
2022-12-15T12:56:59.361Z,24.65
2022-12-15T12:59:28.837Z,10.07
2022-12-15T13:02:17.118Z,24.88
2022-12-15T13:04:50.906Z,25.27
2022-12-15T13:07:38.663Z,11.20
2022-12-15T13:10:08.143Z,11.18
2022-12-15T13:12:51.868Z,25.75
2022-12-15T13:15:28.838Z,18.70
2022-12-15T13:18:04.595Z,13.80
2022-12-15T13:20:33.449Z,9.15
2022-12-15T13:23:21.687Z,7.85
2022-12-15T13:25:57.196Z,11.85
2022-12-15T13:28:42.853Z,13.57
2022-12-15T13:36:40.453Z,24.65
2022-12-15T13:39:12.840Z,23.92
2022-12-15T13:42:07.600Z,8.05
2022-12-15T13:44:39.957Z,25.35
2022-12-15T13:47:12.086Z,18.70
2022-12-15T13:49:59.168Z,26.13
2022-12-15T13:53:16.599Z,27.67
2022-12-15T13:55:27.306Z,24.77
2022-12-15T13:57:58.176Z,25.13
2022-12-15T14:00:24.742Z,25.00
2022-12-15T14:02:51.408Z,28.75
2022-12-15T14:05:21.845Z,26.67
2022-12-15T14:07:55.068Z,26.42
2022-12-15T14:10:24.966Z,26.98
2022-12-15T14:12:53.129Z,25.17
2022-12-15T14:15:26.274Z,26.65
2022-12-15T14:17:55.472Z,26.38
2022-12-15T14:20:27.538Z,29.33
2022-12-15T14:22:54.959Z,28.13
2022-12-15T14:25:29.365Z,28.55
2022-12-15T14:27:56.884Z,27.47
2022-12-15T14:30:25.462Z,28.90
2022-12-15T14:33:03.776Z,28.80
2022-12-15T14:35:36.332Z,26.38
2022-12-15T14:38:07.322Z,26.45
2022-12-15T14:40:37.720Z,26.52
2022-12-15T14:43:06.929Z,27.65
2022-12-15T14:45:33.897Z,27.88
2022-12-15T14:51:00.401Z,28.73
2022-12-15T14:53:32.919Z,29.45
2022-12-15T14:56:32.488Z,29.05
2022-12-15T14:59:04.494Z,28.33
2022-12-15T15:01:42.119Z,29.05
2022-12-15T15:03:03.888Z,31.15
2022-12-15T15:03:09.371Z,7.82
2022-12-15T15:04:29.075Z,27.75
2022-12-15T15:06:58.171Z,28.17
2022-12-15T15:09:30.692Z,28.40
2022-12-15T15:12:02.491Z,29.48
2022-12-15T15:14:48.345Z,29.98
2022-12-15T15:17:22.995Z,31.13
2022-12-15T15:19:57.645Z,29.70
2022-12-15T15:22:36.147Z,31.70
2022-12-15T15:25:26.281Z,30.10
2022-12-15T15:27:53.141Z,31.90
2022-12-15T15:30:22.215Z,37.10
2022-12-15T15:33:09.070Z,36.88
2022-12-15T15:35:35.502Z,34.33
2022-12-15T15:38:07.238Z,37.75
2022-12-15T15:40:33.707Z,37.95
2022-12-15T15:43:00.186Z,42.05
2022-12-15T15:45:26.807Z,43.08
2022-12-15T15:47:56.131Z,42.28
2022-12-15T15:50:29.066Z,38.97
2022-12-15T15:52:56.428Z,40.53
2022-12-15T15:55:27.469Z,38.05
2022-12-15T15:57:54.082Z,40.75
2022-12-15T16:00:24.769Z,40.05
2022-12-15T16:02:52.067Z,40.22
2022-12-15T16:05:20.966Z,41.30
2022-12-15T16:07:48.226Z,40.58
2022-12-15T16:10:17.952Z,39.92
2022-12-15T16:12:47.330Z,40.13
2022-12-15T16:15:23.538Z,44.53
2022-12-15T16:17:50.271Z,43.45
2022-12-15T16:20:20.023Z,41.67
2022-12-15T16:22:49.900Z,42.05
2022-12-15T16:25:21.650Z,41.40
2022-12-15T16:27:48.128Z,43.53
2022-12-15T16:30:21.265Z,37.83
2022-12-15T16:32:47.742Z,39.25
2022-12-15T16:35:14.284Z,39.17
2022-12-15T16:37:46.433Z,38.63
2022-12-15T16:40:16.457Z,39.92
2022-12-15T16:42:45.028Z,40.78
2022-12-15T16:45:19.639Z,41.15
2022-12-15T16:47:46.493Z,39.28
2022-12-15T16:50:15.072Z,41.88
2022-12-15T16:52:44.014Z,40.67
2022-12-15T16:55:22.826Z,39.65
2022-12-15T16:57:49.532Z,42.88
2022-12-15T17:00:24.879Z,37.85
2022-12-15T17:02:52.348Z,41.30
2022-12-15T17:05:20.249Z,41.97
2022-12-15T17:07:51.536Z,40.08
2022-12-15T17:10:23.814Z,43.83
2022-12-15T17:12:51.367Z,41.03
2022-12-15T17:15:28.088Z,39.92
2022-12-15T17:17:55.259Z,43.45
2022-12-15T17:20:29.467Z,46.45
2022-12-15T17:23:02.403Z,45.22
2022-12-15T17:28:31.185Z,46.53
2022-12-15T17:30:57.882Z,48.97
2022-12-15T17:33:30.304Z,46.80
2022-12-15T17:36:02.247Z,43.45
2022-12-15T17:38:29.317Z,38.60
2022-12-15T17:40:56.628Z,40.65
2022-12-15T17:43:30.634Z,38.78
2022-12-15T17:46:01.846Z,45.35
2022-12-15T17:48:28.398Z,46.05
2022-12-15T17:50:54.877Z,46.17
2022-12-15T17:53:24.303Z,41.53
2022-12-15T17:55:52.641Z,45.88
2022-12-15T17:58:21.911Z,43.33
2022-12-15T18:00:52.779Z,44.75
2022-12-15T18:03:21.246Z,46.33
2022-12-15T18:05:50.970Z,43.78
2022-12-15T18:08:20.407Z,37.25
2022-12-15T18:10:50.547Z,40.00
2022-12-15T18:13:21.470Z,43.33
2022-12-15T18:15:48.348Z,41.92
2022-12-15T18:18:16.080Z,42.45
2022-12-15T18:20:43.490Z,50.88
2022-12-15T18:23:12.903Z,67.03
2022-12-15T18:25:40.109Z,89.22
2022-12-15T18:28:25.706Z,49.10
2022-12-15T18:31:15.079Z,44.83
2022-12-15T18:33:41.586Z,50.83
2022-12-15T18:36:09.375Z,51.10
2022-12-15T18:38:35.856Z,52.92
2022-12-15T18:41:04.289Z,48.83
2022-12-15T18:43:33.732Z,49.30
2022-12-15T18:46:00.502Z,48.00
2022-12-15T18:48:33.172Z,49.47
2022-12-15T18:51:01.905Z,50.47
2022-12-15T18:53:32.471Z,51.95
2022-12-15T18:56:06.419Z,52.35
2022-12-15T18:58:35.827Z,69.60
2022-12-15T19:01:04.486Z,50.13
2022-12-15T19:03:32.099Z,52.20
2022-12-15T19:06:25.648Z,50.53
2022-12-15T19:08:52.940Z,47.70
2022-12-15T19:11:30.805Z,47.65
2022-12-15T19:14:02.424Z,45.92
2022-12-15T19:16:49.749Z,50.42
2022-12-15T19:19:34.753Z,48.55
2022-12-15T19:22:20.056Z,45.92
2022-12-15T19:24:55.459Z,48.95
2022-12-15T19:27:26.230Z,53.00
2022-12-15T19:29:55.757Z,53.30
2022-12-15T19:32:23.042Z,60.55
2022-12-15T19:34:49.921Z,58.55
2022-12-15T19:37:27.400Z,59.10
2022-12-15T19:39:56.369Z,51.22
2022-12-15T19:42:35.421Z,49.65
2022-12-15T19:45:13.790Z,51.47
2022-12-15T19:47:40.235Z,50.65
2022-12-15T19:50:07.211Z,45.83
2022-12-15T19:52:34.518Z,50.47
2022-12-15T19:55:01.397Z,48.75
2022-12-15T19:57:27.830Z,54.35
2022-12-15T19:59:54.311Z,56.70
2022-12-15T20:02:21.552Z,57.80
2022-12-15T20:04:48.940Z,50.70
2022-12-15T20:07:30.358Z,57.53
2022-12-15T20:09:58.114Z,50.40
2022-12-15T20:12:25.204Z,47.67
2022-12-15T20:14:51.778Z,45.72
2022-12-15T20:17:18.205Z,44.88
2022-12-15T20:19:44.667Z,45.67
2022-12-15T20:22:14.635Z,42.33
2022-12-15T20:24:42.162Z,43.10
2022-12-15T20:27:17.434Z,47.10
2022-12-15T20:29:44.872Z,53.63
2022-12-15T20:32:17.466Z,54.65
2022-12-15T20:34:44.698Z,48.00
2022-12-15T20:37:17.822Z,53.47
2022-12-15T20:39:44.312Z,50.53
2022-12-15T20:42:15.073Z,48.78
2022-12-15T20:44:41.588Z,47.08
2022-12-15T20:47:19.232Z,47.13
2022-12-15T20:49:45.782Z,49.38
2022-12-15T20:52:26.957Z,51.83
2022-12-15T20:54:54.566Z,51.55
2022-12-15T20:57:21.437Z,47.58
2022-12-15T20:59:47.939Z,48.90
2022-12-15T21:02:19.500Z,46.80
2022-12-15T21:04:46.157Z,47.85
2022-12-15T21:07:13.149Z,50.88
2022-12-15T21:09:40.180Z,51.22
2022-12-15T21:12:17.331Z,50.78
2022-12-15T21:14:43.857Z,49.97
2022-12-15T21:17:15.843Z,55.25
2022-12-15T21:19:42.714Z,55.42
2022-12-15T21:22:29.450Z,60.38
2022-12-15T21:24:58.283Z,61.85
2022-12-15T21:27:24.780Z,58.38
2022-12-15T21:29:52.938Z,58.17
2022-12-15T21:32:20.504Z,59.30
2022-12-15T21:34:46.993Z,57.17
2022-12-15T21:37:29.258Z,56.50
2022-12-15T21:39:56.722Z,55.63
2022-12-15T21:42:23.997Z,52.50
2022-12-15T21:44:50.502Z,51.63
2022-12-15T21:47:16.904Z,51.78
2022-12-15T21:49:43.359Z,55.00
2022-12-15T21:52:09.902Z,60.20
2022-12-15T21:54:36.595Z,53.47
2022-12-15T21:57:03.469Z,56.88
2022-12-15T21:59:31.771Z,56.40
2022-12-15T22:02:00.539Z,59.90
2022-12-15T22:04:33.346Z,58.17
2022-12-15T22:07:00.195Z,59.53
2022-12-15T22:09:26.888Z,59.50
2022-12-15T22:11:56.112Z,58.92
2022-12-15T22:14:28.687Z,62.75
2022-12-15T22:16:55.517Z,55.63
2022-12-15T22:19:23.003Z,52.70
2022-12-15T22:21:50.362Z,56.08
2022-12-15T22:24:16.841Z,56.83
2022-12-15T22:26:43.711Z,56.45
2022-12-15T22:29:17.014Z,57.35
2022-12-15T22:31:43.692Z,57.22
2022-12-15T22:34:15.623Z,56.92
2022-12-15T22:36:42.813Z,55.40
2022-12-15T22:39:14.676Z,56.35
2022-12-15T22:41:47.406Z,57.22
2022-12-15T22:44:19.897Z,61.92
2022-12-15T22:46:47.893Z,56.95
2022-12-15T22:49:22.745Z,57.80
2022-12-15T22:51:49.247Z,59.72
2022-12-15T22:54:25.039Z,58.08
2022-12-15T22:56:58.449Z,58.60
2022-12-15T22:59:30.847Z,57.78
2022-12-15T23:01:57.855Z,56.13
2022-12-15T23:04:24.912Z,56.47
2022-12-15T23:06:51.758Z,57.50
2022-12-15T23:09:18.433Z,60.80
2022-12-15T23:11:45.000Z,64.32
2022-12-15T23:14:13.990Z,63.90
2022-12-15T23:16:40.953Z,65.88
2022-12-15T23:19:08.388Z,68.30
2022-12-15T23:21:35.780Z,67.63
2022-12-15T23:24:02.289Z,67.25
2022-12-15T23:26:28.731Z,65.53
2022-12-15T23:28:55.333Z,70.07
2022-12-15T23:31:22.220Z,70.00
2022-12-15T23:33:49.804Z,67.10
2022-12-15T23:36:18.881Z,65.80
2022-12-15T23:38:45.394Z,67.40
2022-12-15T23:41:16.401Z,66.03
2022-12-15T23:43:42.947Z,61.50
2022-12-15T23:46:09.651Z,63.28
2022-12-15T23:48:39.156Z,62.85
2022-12-15T23:51:14.848Z,65.10
2022-12-15T23:53:43.459Z,65.47
2022-12-15T23:56:12.961Z,61.65
2022-12-15T23:58:40.881Z,65.53
